Time;durP1;ratioP1;P1;durP2;ratioP2;P2;SDS_P1;SDS_P2;PMS_P1;PMS_P2;Temp;Humidity;BMP_temperature;BMP_pressure;BME280_temperature;BME280_humidity;BME280_pressure;Samples;Min_cycle;Max_cycle;Signal;HPM_P1;HPM_P2
2023/06/07 00:00:34;;;;;;;3.65;2.95;;;;;;;17.53;66.56;101212.06;6271242;22;20015;-81
2023/06/07 00:03:01;;;;;;;8.60;3.50;;;;;;;17.51;67.17;101209.47;6295239;22;20034;-78
2023/06/07 00:05:31;;;;;;;6.10;3.88;;;;;;;17.50;67.18;101218.31;6299271;22;20094;-82
2023/06/07 00:07:57;;;;;;;5.88;3.33;;;;;;;17.52;67.34;101210.31;6295736;22;20450;-79
2023/06/07 00:10:24;;;;;;;5.70;3.20;;;;;;;17.49;67.20;101219.22;6326223;22;20073;-77
2023/06/07 00:12:50;;;;;;;4.65;3.53;;;;;;;17.47;67.36;101214.88;6300947;22;20411;-78
2023/06/07 00:15:16;;;;;;;6.85;3.92;;;;;;;17.48;67.53;101216.63;6301331;22;20015;-80
2023/06/07 00:17:44;;;;;;;3.40;3.10;;;;;;;17.46;67.04;101215.81;6300755;22;20027;-78
2023/06/07 00:20:13;;;;;;;6.15;3.10;;;;;;;17.43;67.89;101218.53;6299839;22;20019;-77
2023/06/07 00:22:41;;;;;;;5.07;2.75;;;;;;;17.41;68.04;101215.06;6300172;22;20012;-77
2023/06/07 00:25:08;;;;;;;9.70;4.60;;;;;;;17.40;68.21;101214.19;6300978;22;20085;-81
2023/06/07 00:27:35;;;;;;;4.18;3.70;;;;;;;17.39;68.31;101227.47;6275265;22;20015;-82
2023/06/07 00:30:03;;;;;;;7.10;3.17;;;;;;;17.37;68.36;101219.59;6302062;22;20026;-83
2023/06/07 00:32:29;;;;;;;6.63;3.53;;;;;;;17.35;68.23;101218.75;6299987;22;20080;-78
2023/06/07 00:34:56;;;;;;;7.03;3.58;;;;;;;17.31;68.71;101217.09;6302592;22;20025;-81
2023/06/07 00:37:22;;;;;;;7.15;3.50;;;;;;;17.29;68.78;101224.22;6299936;22;20023;-83
2023/06/07 00:39:49;;;;;;;8.32;3.70;;;;;;;17.24;69.37;101219.06;6275122;22;20022;-81
2023/06/07 00:42:15;;;;;;;5.35;3.25;;;;;;;17.24;69.22;101216.41;6274724;22;20527;-79
2023/06/07 00:44:41;;;;;;;6.50;3.95;;;;;;;17.23;69.40;101221.75;6299633;22;20015;-81
2023/06/07 00:47:08;;;;;;;4.40;4.00;;;;;;;17.22;69.34;101220.00;6300687;22;20316;-79
2023/06/07 00:49:35;;;;;;;6.65;3.55;;;;;;;17.20;69.75;101220.91;6301384;22;20016;-82
2023/06/07 00:52:01;;;;;;;4.47;3.55;;;;;;;17.20;69.67;101225.34;6301703;22;20015;-78
2023/06/07 00:54:28;;;;;;;6.85;4.32;;;;;;;17.18;69.57;101225.41;6300549;22;20022;-81
2023/06/07 00:56:56;;;;;;;6.75;3.55;;;;;;;17.16;69.80;101224.56;6275571;22;20019;-80
2023/06/07 00:59:22;;;;;;;5.07;3.60;;;;;;;17.13;69.75;101224.66;6299576;22;20378;-78
2023/06/07 01:01:52;;;;;;;4.85;3.95;;;;;;;17.13;69.76;101229.06;6300312;22;20073;-78
2023/06/07 01:04:21;;;;;;;6.63;4.40;;;;;;;17.10;69.89;101230.00;6300360;22;20012;-80
2023/06/07 01:06:48;;;;;;;7.70;3.42;;;;;;;17.06;70.31;101230.16;6298637;22;20012;-80
2023/06/07 01:09:17;;;;;;;7.35;3.58;;;;;;;17.00;71.38;101228.50;6300758;22;20019;-80
2023/06/07 01:11:47;;;;;;;4.95;3.75;;;;;;;16.91;72.85;101227.00;6292059;22;20071;-87
2023/06/07 01:14:15;;;;;;;4.90;3.83;;;;;;;16.86;73.72;101234.16;6324227;22;20012;-78
2023/06/07 01:16:44;;;;;;;7.70;3.95;;;;;;;16.80;74.75;101223.72;6306671;22;20030;-77
2023/06/07 01:19:21;;;;;;;7.68;4.43;;;;;;;16.75;76.05;101228.25;6298712;22;20018;-79
2023/06/07 01:21:50;;;;;;;7.38;3.67;;;;;;;16.68;76.11;101236.34;6326450;22;20039;-77
2023/06/07 01:24:18;;;;;;;6.13;3.85;;;;;;;16.63;76.76;101225.00;6275222;22;20011;-77
2023/06/07 01:26:47;;;;;;;7.22;4.03;;;;;;;16.60;77.24;101237.47;6301306;22;20015;-77
2023/06/07 01:29:15;;;;;;;5.90;3.38;;;;;;;16.55;77.27;101232.28;6302407;22;20030;-80
2023/06/07 01:31:43;;;;;;;9.80;3.92;;;;;;;16.52;77.68;101232.38;6302140;22;20431;-77
2023/06/07 01:34:11;;;;;;;6.40;4.07;;;;;;;16.49;78.07;101229.78;6302138;22;20022;-79
2023/06/07 01:36:39;;;;;;;5.40;4.20;;;;;;;16.43;78.30;101227.31;6300780;22;20019;-78
2023/06/07 01:39:10;;;;;;;6.90;3.40;;;;;;;16.41;78.15;101229.09;6271819;22;20015;-79
2023/06/07 01:41:37;;;;;;;6.28;4.40;;;;;;;16.37;78.40;101226.53;6300686;22;20042;-78
2023/06/07 01:44:03;;;;;;;7.13;4.90;;;;;;;16.34;78.43;101231.03;6299560;22;20447;-84
2023/06/07 01:46:30;;;;;;;8.70;4.25;;;;;;;16.30;78.77;101229.38;6300076;22;20056;-79
2023/06/07 01:48:57;;;;;;;8.50;4.10;;;;;;;16.25;79.09;101224.19;6273234;22;20030;-79
2023/06/07 01:51:23;;;;;;;7.55;4.85;;;;;;;16.22;79.31;101226.91;6300012;22;20038;-78
2023/06/07 01:53:50;;;;;;;9.27;4.32;;;;;;;16.17;79.27;101227.00;6299494;22;20614;-77
2023/06/07 01:56:52;;;;;;;9.48;4.70;;;;;;;16.16;79.70;101227.03;6299780;22;20011;-78
2023/06/07 01:59:42;;;;;;;9.02;4.53;;;;;;;16.13;79.59;101222.69;6325638;22;20011;-82
2023/06/07 02:02:31;;;;;;;8.25;4.90;;;;;;;16.11;79.06;101221.00;6302076;22;20387;-77
2023/06/07 02:05:03;;;;;;;7.15;4.28;;;;;;;16.08;79.09;101229.00;6303065;22;20453;-78
2023/06/07 02:07:41;;;;;;;6.35;4.20;;;;;;;16.04;79.13;101231.69;6301780;22;20429;-82
2023/06/07 02:10:10;;;;;;;10.13;4.88;;;;;;;16.02;79.00;101220.31;6298459;22;20102;-77
2023/06/07 02:12:38;;;;;;;6.75;4.20;;;;;;;16.02;78.85;101230.88;6275718;22;20039;-77
2023/06/07 02:15:05;;;;;;;7.25;4.00;;;;;;;15.99;78.97;101232.69;6300536;22;20106;-80
2023/06/07 02:17:33;;;;;;;7.85;4.10;;;;;;;15.94;78.91;101226.66;6301656;22;20019;-78
2023/06/07 02:19:59;;;;;;;10.52;4.40;;;;;;;15.91;78.67;101219.66;6297211;22;20338;-79
2023/06/07 02:22:28;;;;;;;5.65;4.63;;;;;;;15.90;78.75;101225.00;6326628;22;20030;-77
2023/06/07 02:24:55;;;;;;;7.53;4.75;;;;;;;15.84;79.70;101232.13;6301021;22;20019;-83
2023/06/07 02:27:22;;;;;;;8.77;4.63;;;;;;;15.81;78.89;101226.06;6300115;22;20046;-80
2023/06/07 02:29:48;;;;;;;5.07;3.92;;;;;;;15.82;78.85;101233.06;6299781;22;20039;-79
2023/06/07 02:32:15;;;;;;;4.97;4.13;;;;;;;15.82;78.85;101219.88;6274519;22;20078;-89
2023/06/07 02:34:43;;;;;;;7.63;4.13;;;;;;;15.82;78.81;101233.94;6299845;22;20016;-82
2023/06/07 02:37:10;;;;;;;7.20;4.20;;;;;;;15.81;78.91;101226.94;6300353;22;20011;-77
2023/06/07 02:39:36;;;;;;;7.60;4.13;;;;;;;15.78;79.02;101232.22;6301508;22;20086;-80
2023/06/07 02:42:03;;;;;;;7.30;5.45;;;;;;;15.77;79.00;101227.00;6270075;22;20098;-78
2023/06/07 02:44:30;;;;;;;7.90;4.50;;;;;;;15.77;79.80;101230.47;6299703;22;20450;-77
2023/06/07 02:46:56;;;;;;;6.80;4.78;;;;;;;15.75;80.28;101226.13;6275323;22;20122;-83
2023/06/07 02:49:22;;;;;;;10.38;4.78;;;;;;;15.71;81.29;101234.13;6300082;22;20426;-78
2023/06/07 02:51:49;;;;;;;7.45;4.25;;;;;;;15.67;81.74;101232.47;6296638;22;20056;-78
2023/06/07 02:54:19;;;;;;;6.65;4.45;;;;;;;15.61;81.83;101229.94;6298455;22;20020;-82
2023/06/07 02:56:46;;;;;;;6.68;5.28;;;;;;;15.52;82.86;101233.63;6295493;22;20027;-81
2023/06/07 02:59:13;;;;;;;5.47;4.25;;;;;;;15.48;83.21;101234.59;6299826;22;20018;-79
2023/06/07 03:01:39;;;;;;;8.10;4.95;;;;;;;15.45;83.15;101232.03;6300463;22;20456;-78
2023/06/07 03:04:06;;;;;;;8.10;4.55;;;;;;;15.44;82.89;101232.94;6299455;22;20078;-80
2023/06/07 03:06:33;;;;;;;11.05;5.60;;;;;;;15.41;82.48;101237.38;6301586;22;20069;-80
2023/06/07 03:08:59;;;;;;;6.93;4.30;;;;;;;15.36;82.80;101234.88;6300651;22;20437;-77
2023/06/07 03:11:26;;;;;;;9.85;5.47;;;;;;;15.33;82.98;101234.91;6275526;22;20017;-78
2023/06/07 03:13:52;;;;;;;8.65;4.90;;;;;;;15.30;83.23;101232.34;6297312;22;20019;-79
2023/06/07 03:16:19;;;;;;;11.43;5.47;;;;;;;15.25;83.03;101229.78;6299676;22;20118;-78
2023/06/07 03:18:45;;;;;;;7.97;4.85;;;;;;;15.21;83.41;101238.66;6320768;22;20031;-78
2023/06/07 03:21:11;;;;;;;13.07;4.32;;;;;;;15.19;83.39;101240.47;6271119;22;20012;-83
2023/06/07 03:23:38;;;;;;;9.63;5.47;;;;;;;15.15;84.10;101222.97;6218813;22;20609;-78
2023/06/07 03:26:05;;;;;;;10.20;4.90;;;;;;;15.09;84.57;101237.09;6215988;22;20490;-83
2023/06/07 03:28:31;;;;;;;10.85;5.32;;;;;;;15.07;85.10;101236.28;6257621;22;20174;-93
2023/06/07 03:30:57;;;;;;;6.72;4.85;;;;;;;15.04;85.21;101245.13;6243686;22;20000;-94
2023/06/07 03:33:24;;;;;;;8.30;5.57;;;;;;;15.02;85.60;101244.28;6229800;22;20016;-79
2023/06/07 03:35:51;;;;;;;7.10;4.50;;;;;;;14.99;85.60;101241.69;6222356;22;20016;-79
2023/06/07 03:38:17;;;;;;;7.53;4.80;;;;;;;14.93;85.93;101247.06;6244520;22;20435;-80
2023/06/07 03:40:44;;;;;;;9.10;4.72;;;;;;;14.90;86.94;101249.78;6244393;22;20012;-83
2023/06/07 03:43:10;;;;;;;9.27;4.90;;;;;;;14.89;87.17;101245.38;6244080;22;20015;-84
2023/06/07 03:45:37;;;;;;;7.55;5.10;;;;;;;14.87;87.18;101239.25;6240960;22;20016;-79
2023/06/07 03:48:03;;;;;;;13.48;6.10;;;;;;;14.83;87.47;101246.34;6246475;22;20030;-81
2023/06/07 03:50:30;;;;;;;8.32;5.00;;;;;;;14.80;87.64;101248.19;6245636;22;20027;-80
2023/06/07 03:52:56;;;;;;;7.90;4.93;;;;;;;14.76;87.81;101254.38;6242420;22;20019;-81
2023/06/07 03:55:23;;;;;;;8.43;4.82;;;;;;;14.75;87.84;101256.16;6273167;22;20020;-77
2023/06/07 03:57:49;;;;;;;9.90;5.82;;;;;;;14.74;88.19;101249.13;6247016;22;20090;-77
2023/06/07 04:00:17;;;;;;;6.80;4.85;;;;;;;14.72;88.26;101254.44;6246617;22;20078;-79
2023/06/07 04:02:44;;;;;;;10.45;4.78;;;;;;;14.71;88.40;101257.09;6246104;22;20066;-78
2023/06/07 04:05:10;;;;;;;15.05;5.85;;;;;;;14.72;88.38;101258.84;6247121;22;20436;-80
2023/06/07 04:07:37;;;;;;;14.05;6.40;;;;;;;14.69;88.44;101262.41;6276689;22;20015;-84
2023/06/07 04:10:04;;;;;;;8.55;5.00;;;;;;;14.68;88.96;101260.66;6219606;22;20027;-78
2023/06/07 04:12:31;;;;;;;11.73;5.68;;;;;;;14.69;89.11;101261.53;6245062;22;20012;-80
2023/06/07 04:14:58;;;;;;;9.50;5.50;;;;;;;14.66;89.16;101257.16;6239669;22;20019;-78
2023/06/07 04:17:24;;;;;;;7.10;4.75;;;;;;;14.59;89.26;101257.25;6241721;22;20023;-80
2023/06/07 04:19:54;;;;;;;9.00;5.68;;;;;;;14.58;89.26;101255.53;6271121;22;20358;-81
2023/06/07 04:22:22;;;;;;;9.60;5.05;;;;;;;14.55;89.44;101254.69;6297864;22;20042;-79
2023/06/07 04:24:50;;;;;;;10.73;5.47;;;;;;;14.53;89.84;101255.59;6300329;22;20390;-77
2023/06/07 04:27:17;;;;;;;11.30;6.85;;;;;;;14.51;90.10;101263.53;6301580;22;20027;-81
2023/06/07 04:29:46;;;;;;;10.18;5.22;;;;;;;14.49;89.88;101256.56;6302112;22;20015;-77
2023/06/07 04:32:12;;;;;;;10.60;5.75;;;;;;;14.44;90.15;101253.97;6300691;22;20019;-77
2023/06/07 04:34:41;;;;;;;14.07;6.00;;;;;;;14.45;90.37;101262.75;6275661;22;20025;-77
2023/06/07 04:37:09;;;;;;;10.07;5.38;;;;;;;14.45;90.13;101262.75;6302596;22;20015;-78
2023/06/07 04:39:36;;;;;;;13.25;5.82;;;;;;;14.47;90.20;101260.97;6276798;22;20091;-78
2023/06/07 04:42:05;;;;;;;13.80;6.03;;;;;;;14.45;90.07;101263.63;6301104;22;20007;-90
2023/06/07 04:44:32;;;;;;;11.25;5.65;;;;;;;14.45;90.33;101261.00;6301145;22;20090;-78
2023/06/07 04:46:59;;;;;;;14.50;6.32;;;;;;;14.43;90.25;101268.06;6276023;22;20472;-77
2023/06/07 04:49:26;;;;;;;11.60;5.85;;;;;;;14.41;90.23;101277.75;6302352;22;20027;-85
2023/06/07 04:51:55;;;;;;;9.93;5.22;;;;;;;14.37;90.89;101271.63;6275431;22;20027;-83
2023/06/07 04:54:23;;;;;;;14.45;5.38;;;;;;;14.37;90.76;101273.41;6300506;22;20011;-77
2023/06/07 04:56:50;;;;;;;12.75;6.80;;;;;;;14.34;90.87;101282.22;6302739;22;20026;-79
2023/06/07 04:59:18;;;;;;;11.15;5.90;;;;;;;14.28;91.31;101282.31;6302860;22;20076;-78
2023/06/07 05:01:44;;;;;;;13.82;5.65;;;;;;;14.32;91.36;101281.38;6304889;22;20019;-77
2023/06/07 05:04:11;;;;;;;9.07;5.50;;;;;;;14.38;90.95;101283.06;6304002;22;20030;-79
2023/06/07 05:06:37;;;;;;;13.50;6.28;;;;;;;14.43;90.83;101278.59;6304602;22;20060;-81
2023/06/07 05:09:06;;;;;;;11.02;6.18;;;;;;;14.46;91.31;101288.22;6303218;22;20015;-77
2023/06/07 05:11:33;;;;;;;12.32;6.85;;;;;;;14.45;92.22;101286.47;6302199;22;20026;-82
2023/06/07 05:13:59;;;;;;;11.77;5.25;;;;;;;14.49;92.85;101286.38;6274391;22;20019;-94
2023/06/07 05:16:26;;;;;;;13.50;6.00;;;;;;;14.49;93.28;101288.16;6303552;22;20027;-84
2023/06/07 05:18:53;;;;;;;9.43;6.30;;;;;;;14.43;94.14;101296.16;6301944;22;20022;-80
2023/06/07 05:21:20;;;;;;;11.27;6.20;;;;;;;14.38;94.45;101293.59;6303147;22;20019;-79
2023/06/07 05:23:46;;;;;;;12.52;7.22;;;;;;;14.34;94.51;101299.78;6301916;22;20027;-82
2023/06/07 05:26:15;;;;;;;11.88;6.75;;;;;;;14.28;95.14;101292.84;6302159;22;20064;-78
2023/06/07 05:28:42;;;;;;;12.73;5.95;;;;;;;14.31;95.82;101292.78;6301169;22;20019;-78
2023/06/07 05:31:09;;;;;;;20.77;8.38;;;;;;;14.32;96.03;101297.16;6301757;22;20015;-81
2023/06/07 05:33:35;;;;;;;10.10;6.35;;;;;;;14.31;96.50;101297.19;6302739;22;20041;-81
2023/06/07 05:36:02;;;;;;;14.10;6.53;;;;;;;14.30;96.58;101300.72;6301941;22;20297;-78
2023/06/07 05:38:28;;;;;;;14.93;6.97;;;;;;;14.27;96.65;101300.78;6302639;22;20018;-78
2023/06/07 05:40:55;;;;;;;11.68;6.35;;;;;;;14.22;98.16;101295.56;6294063;22;20019;-88
2023/06/07 05:43:22;;;;;;;12.77;7.03;;;;;;;14.26;97.63;101291.13;6300721;22;20023;-79
2023/06/07 05:45:48;;;;;;;14.63;7.10;;;;;;;14.27;96.99;101300.78;6304344;22;20510;-83
2023/06/07 05:48:15;;;;;;;12.88;6.78;;;;;;;14.22;97.18;101300.81;6322866;22;20003;-87
2023/06/07 05:50:41;;;;;;;13.77;7.22;;;;;;;14.23;97.41;101297.31;6312792;22;20080;-84
2023/06/07 05:53:08;;;;;;;18.88;7.25;;;;;;;14.15;97.40;101302.66;6296322;22;20011;-82
2023/06/07 05:55:34;;;;;;;13.38;6.82;;;;;;;14.13;97.54;101301.84;6298902;22;20453;-81
2023/06/07 05:58:01;;;;;;;15.30;7.05;;;;;;;14.13;98.00;101300.94;6300379;22;20015;-79
2023/06/07 06:00:28;;;;;;;15.32;7.28;;;;;;;14.12;97.70;101299.19;6299688;22;20015;-78
2023/06/07 06:02:56;;;;;;;8.88;5.65;;;;;;;14.12;97.94;101300.09;6300285;22;20030;-79
2023/06/07 06:05:27;;;;;;;15.55;7.18;;;;;;;14.20;98.67;101302.63;6303415;22;20035;-82
2023/06/07 06:07:55;;;;;;;9.55;6.80;;;;;;;14.29;98.04;101302.50;6302702;22;20419;-80
2023/06/07 06:10:22;;;;;;;17.08;7.20;;;;;;;14.31;98.29;101287.53;6299622;22;20448;-82
2023/06/07 06:12:49;;;;;;;13.25;7.05;;;;;;;14.33;99.32;101283.13;6301498;22;20046;-80
2023/06/07 06:15:15;;;;;;;14.07;6.97;;;;;;;14.45;99.04;101281.19;6250892;22;20043;-82
2023/06/07 06:17:41;;;;;;;14.40;7.60;;;;;;;14.51;99.04;101279.34;6301471;22;20011;-80
2023/06/07 06:20:08;;;;;;;17.20;7.95;;;;;;;14.46;99.02;101281.19;6300023;22;20022;-83
2023/06/07 06:22:35;;;;;;;15.00;8.38;;;;;;;14.47;99.17;101282.03;6300457;22;20101;-80
2023/06/07 06:25:02;;;;;;;12.18;6.32;;;;;;;14.53;100.00;101308.28;6327380;22;20015;-85
2023/06/07 06:27:28;;;;;;;11.10;6.60;;;;;;;14.61;100.00;101311.66;6301166;22;20090;-78
2023/06/07 06:29:55;;;;;;;8.15;5.78;;;;;;;14.68;100.00;101302.81;6299739;22;20019;-80
2023/06/07 06:32:21;;;;;;;17.10;8.27;;;;;;;14.85;100.00;101299.06;6301397;22;20014;-78
2023/06/07 06:34:48;;;;;;;11.60;6.72;;;;;;;14.96;100.00;101306.78;6301369;22;20066;-88
2023/06/07 06:37:15;;;;;;;12.48;6.85;;;;;;;15.04;97.36;101302.25;6302493;22;20019;-81
2023/06/07 06:39:41;;;;;;;8.35;6.05;;;;;;;15.02;97.00;101299.63;6299568;22;20019;-81
2023/06/07 06:42:08;;;;;;;14.20;7.03;;;;;;;15.13;96.16;101306.50;6273581;22;20413;-80
2023/06/07 06:44:34;;;;;;;8.00;6.22;;;;;;;15.21;95.75;101301.94;6299841;22;20457;-78
2023/06/07 06:47:01;;;;;;;14.57;7.22;;;;;;;15.26;95.26;101299.25;6300680;22;20015;-80
2023/06/07 06:49:27;;;;;;;10.68;7.43;;;;;;;15.24;95.72;101299.28;6296430;22;20591;-83
2023/06/07 06:51:54;;;;;;;14.38;7.00;;;;;;;15.22;95.82;101301.91;6296826;22;20445;-80
2023/06/07 06:54:21;;;;;;;14.02;6.47;;;;;;;15.29;95.50;101301.81;6300226;22;20020;-80
2023/06/07 06:56:47;;;;;;;10.98;6.88;;;;;;;15.33;95.63;101329.88;6298954;22;20027;-81
2023/06/07 06:59:13;;;;;;;14.05;7.60;;;;;;;15.34;95.42;101326.34;6293822;22;20450;-78
2023/06/07 07:01:45;;;;;;;17.10;7.90;;;;;;;15.24;95.87;101323.00;6270365;22;20442;-80
2023/06/07 07:04:12;;;;;;;13.13;7.35;;;;;;;15.34;97.91;101326.34;6298687;22;20026;-79
2023/06/07 07:06:42;;;;;;;16.52;8.80;;;;;;;15.41;96.87;101317.44;6273149;22;20050;-79
2023/06/07 07:09:10;;;;;;;10.48;6.85;;;;;;;15.45;95.81;101320.84;6298613;22;20427;-78
2023/06/07 07:11:37;;;;;;;9.07;6.28;;;;;;;15.48;96.83;101320.81;6298965;22;20114;-82
2023/06/07 07:14:04;;;;;;;9.75;6.93;;;;;;;15.41;95.98;101317.44;6273929;22;20023;-79
2023/06/07 07:16:31;;;;;;;15.68;7.45;;;;;;;15.35;95.64;101320.16;6300314;22;20023;-79
2023/06/07 07:18:58;;;;;;;13.95;8.25;;;;;;;15.30;95.39;101312.31;6298287;22;20019;-84
2023/06/07 07:21:26;;;;;;;13.65;7.45;;;;;;;15.27;96.17;101307.13;6273310;22;20106;-80
2023/06/07 07:23:53;;;;;;;11.07;6.93;;;;;;;15.32;96.00;101304.41;6301099;22;20439;-82
2023/06/07 07:26:20;;;;;;;12.43;7.70;;;;;;;15.35;95.68;101304.34;6302415;22;20061;-80
2023/06/07 07:28:47;;;;;;;19.50;7.63;;;;;;;15.27;95.76;101306.25;6249374;22;20027;-85
2023/06/07 07:31:14;;;;;;;20.35;8.18;;;;;;;15.17;96.35;101314.31;6274475;22;20088;-82
2023/06/07 07:33:41;;;;;;;11.73;6.68;;;;;;;15.20;96.74;101309.00;6300986;22;20157;-84
2023/06/07 07:36:08;;;;;;;9.60;7.53;;;;;;;15.21;97.03;101323.03;6300329;22;20422;-84
2023/06/07 07:38:37;;;;;;;17.13;8.02;;;;;;;15.28;96.07;101326.44;6301229;22;20023;-78
2023/06/07 07:41:06;;;;;;;10.65;7.22;;;;;;;15.39;96.23;101333.25;6299462;22;20011;-82
2023/06/07 07:43:32;;;;;;;12.95;7.85;;;;;;;15.62;95.79;101326.69;6301570;22;20054;-81
2023/06/07 07:45:59;;;;;;;9.75;6.55;;;;;;;15.86;95.22;101321.88;6274167;22;20442;-80
2023/06/07 07:48:27;;;;;;;13.52;7.85;;;;;;;15.98;94.25;101331.31;6299993;22;20022;-82
2023/06/07 07:50:53;;;;;;;11.23;6.47;;;;;;;16.03;93.51;101324.16;6299635;22;20046;-82
2023/06/07 07:53:20;;;;;;;16.13;8.30;;;;;;;16.08;92.88;101324.94;6301240;22;20020;-79
2023/06/07 07:55:46;;;;;;;8.00;6.60;;;;;;;16.05;92.93;101332.94;6301062;22;20018;-81
2023/06/07 07:58:13;;;;;;;12.38;7.50;;;;;;;16.01;92.49;101329.47;6299465;22;20019;-82
2023/06/07 08:00:41;;;;;;;16.92;8.38;;;;;;;16.02;91.50;101333.84;6301385;22;20015;-83
2023/06/07 08:03:09;;;;;;;16.70;7.70;;;;;;;16.02;91.28;101335.63;6277154;22;20031;-79
2023/06/07 08:05:36;;;;;;;15.40;7.43;;;;;;;16.12;90.67;101336.31;6329029;22;20019;-82
2023/06/07 08:08:02;;;;;;;12.95;8.63;;;;;;;16.25;89.63;101342.19;6302496;22;20029;-83
2023/06/07 08:10:29;;;;;;;11.88;6.60;;;;;;;16.49;89.82;101341.66;6301917;22;20090;-78
2023/06/07 08:12:55;;;;;;;9.20;7.20;;;;;;;16.89;87.85;101341.63;6301707;22;20107;-84
2023/06/07 08:15:22;;;;;;;14.68;7.65;;;;;;;17.15;85.42;101346.28;6301971;22;20097;-85
2023/06/07 08:17:48;;;;;;;13.57;7.63;;;;;;;17.25;84.89;101355.75;6301436;22;20019;-79
2023/06/07 08:20:15;;;;;;;14.23;6.70;;;;;;;17.62;83.98;101346.81;6300121;22;20015;-80
2023/06/07 08:22:43;;;;;;;17.27;9.18;;;;;;;18.01;81.40;101343.97;6300321;22;20019;-83
2023/06/07 08:25:10;;;;;;;11.00;6.97;;;;;;;18.30;80.45;101339.63;6300204;22;20015;-79
2023/06/07 08:27:37;;;;;;;13.02;7.00;;;;;;;18.63;80.21;101344.78;6325653;22;20022;-78
2023/06/07 08:30:06;;;;;;;17.60;8.20;;;;;;;18.88;79.06;101345.75;6297770;22;20019;-81
2023/06/07 08:32:35;;;;;;;13.60;7.38;;;;;;;18.93;78.43;101344.75;6296189;22;20034;-84
2023/06/07 08:35:03;;;;;;;18.23;9.80;;;;;;;19.18;76.62;101343.94;6270347;22;20016;-87
2023/06/07 08:37:29;;;;;;;12.15;7.55;;;;;;;19.18;76.18;101349.25;6298701;22;20084;-89
2023/06/07 08:39:56;;;;;;;11.38;7.40;;;;;;;19.25;76.46;101341.94;6299123;22;20022;-79
2023/06/07 08:42:22;;;;;;;10.73;7.35;;;;;;;19.39;75.91;101342.31;6301232;22;20019;-83
2023/06/07 08:44:50;;;;;;;14.75;7.35;;;;;;;19.49;75.42;101341.06;6299763;22;20015;-79
2023/06/07 08:47:17;;;;;;;10.77;7.90;;;;;;;19.43;75.10;101345.75;6297371;22;20015;-84
2023/06/07 08:49:54;;;;;;;15.05;8.75;;;;;;;19.35;75.76;101351.31;6268398;22;20019;-87
2023/06/07 08:52:23;;;;;;;14.90;8.80;;;;;;;19.28;76.04;101349.78;6294898;22;20023;-82
2023/06/07 08:54:51;;;;;;;12.57;8.77;;;;;;;19.20;76.03;101349.19;6300330;22;20060;-82
2023/06/07 08:57:17;;;;;;;14.82;7.75;;;;;;;19.08;76.84;101356.63;6298433;22;20472;-89
2023/06/07 08:59:48;;;;;;;10.93;6.90;;;;;;;18.93;77.31;101355.38;6273156;22;20045;-82
2023/06/07 09:02:16;;;;;;;13.23;7.53;;;;;;;18.90;77.01;101349.28;6297123;22;20026;-86
2023/06/07 09:04:43;;;;;;;13.20;7.72;;;;;;;18.80;77.42;101346.03;6297994;22;20023;-84
2023/06/07 09:07:10;;;;;;;17.55;9.05;;;;;;;18.80;77.12;101351.34;6298139;22;20031;-81
2023/06/07 09:09:37;;;;;;;16.30;8.43;;;;;;;18.70;77.29;101355.22;6297595;22;20482;-86
2023/06/07 09:12:04;;;;;;;13.55;7.38;;;;;;;18.80;77.10;101356.66;6296513;22;20015;-80
2023/06/07 09:14:31;;;;;;;13.45;8.85;;;;;;;18.82;77.13;101358.31;6297294;22;20019;-79
2023/06/07 09:17:01;;;;;;;11.65;7.40;;;;;;;18.96;76.61;101362.34;6297989;22;20023;-84
2023/06/07 09:19:45;;;;;;;10.10;7.45;;;;;;;19.08;76.14;101369.03;6294971;22;20537;-80
2023/06/07 09:22:14;;;;;;;13.77;8.02;;;;;;;19.14;75.81;101359.09;6295771;22;20019;-81
2023/06/07 09:24:41;;;;;;;16.80;10.18;;;;;;;19.27;75.42;101359.53;6271308;22;20019;-85
2023/06/07 09:27:09;;;;;;;10.48;8.55;;;;;;;19.58;73.67;101358.47;6296281;22;20023;-78
2023/06/07 09:29:41;;;;;;;14.13;9.98;;;;;;;19.75;73.29;101360.53;6295053;22;20018;-82
2023/06/07 09:32:19;;;;;;;16.95;10.13;;;;;;;20.25;71.93;101364.91;6269084;22;20120;-80
2023/06/07 09:34:46;;;;;;;14.85;9.73;;;;;;;20.71;70.06;101353.44;6295552;22;20011;-79
2023/06/07 09:37:13;;;;;;;13.40;8.90;;;;;;;20.93;69.06;101362.25;6295413;22;20110;-89
2023/06/07 09:39:40;;;;;;;14.77;7.68;;;;;;;21.08;68.65;101360.78;6295239;22;20045;-82
2023/06/07 09:42:17;;;;;;;16.92;8.90;;;;;;;21.29;67.43;101355.47;6295020;22;20454;-86
2023/06/07 09:44:44;;;;;;;15.75;9.00;;;;;;;21.33;67.08;101359.75;6296186;22;20018;-81
2023/06/07 09:47:23;;;;;;;11.88;8.32;;;;;;;21.30;66.39;101358.06;6298462;22;20015;-87
2023/06/07 09:49:54;;;;;;;14.52;9.30;;;;;;;21.39;67.32;101353.28;6296433;22;20023;-83
2023/06/07 09:52:21;;;;;;;16.85;8.48;;;;;;;21.48;66.74;101355.53;6296149;22;20049;-84
2023/06/07 09:54:49;;;;;;;19.85;9.15;;;;;;;21.61;65.39;101355.88;6296713;22;20159;-79
2023/06/07 09:57:24;;;;;;;12.27;8.98;;;;;;;21.65;65.74;101354.81;6295279;22;20046;-81
2023/06/07 10:00:13;;;;;;;14.38;8.35;;;;;;;21.89;64.65;101355.53;6297682;22;20094;-81
2023/06/07 10:02:41;;;;;;;13.55;8.57;;;;;;;22.12;64.34;101354.47;6297015;22;20098;-80
2023/06/07 10:05:08;;;;;;;12.05;8.43;;;;;;;22.57;62.74;101346.22;6295098;22;20037;-86
2023/06/07 10:07:43;;;;;;;16.38;11.50;;;;;;;23.02;61.18;101344.00;6294903;22;20095;-83
2023/06/07 10:10:12;;;;;;;11.90;8.25;;;;;;;23.29;60.04;101347.94;6294481;22;20015;-85
2023/06/07 10:12:43;;;;;;;12.23;7.43;;;;;;;23.60;58.98;101343.69;6295212;22;20031;-79
2023/06/07 10:15:13;;;;;;;15.95;8.93;;;;;;;23.79;58.62;101343.59;6294756;22;20385;-83
2023/06/07 10:17:56;;;;;;;9.38;8.35;;;;;;;24.10;55.61;101344.59;6295020;22;20019;-82
2023/06/07 10:20:27;;;;;;;13.23;8.85;;;;;;;24.62;55.30;101334.59;6297089;22;20029;-84
2023/06/07 10:23:05;;;;;;;17.55;9.20;;;;;;;24.92;52.74;101337.34;6298220;22;20023;-84
2023/06/07 10:25:40;;;;;;;11.38;7.85;;;;;;;24.95;51.96;101338.97;6273670;22;20016;-80
2023/06/07 10:28:41;;;;;;;11.05;7.85;;;;;;;24.68;50.98;101323.56;6298853;22;20042;-80
2023/06/07 10:31:12;;;;;;;10.15;6.55;;;;;;;24.71;52.33;101328.75;6298952;22;20358;-83
2023/06/07 10:33:40;;;;;;;8.65;6.32;;;;;;;25.71;49.64;101326.44;6272982;22;20057;-80
2023/06/07 10:36:09;;;;;;;11.82;7.63;;;;;;;26.62;47.06;101325.13;6298282;22;20029;-81
2023/06/07 10:38:37;;;;;;;12.18;7.38;;;;;;;26.89;46.55;101322.47;6298002;22;20026;-80
2023/06/07 10:41:05;;;;;;;13.82;8.15;;;;;;;26.72;46.01;101327.13;6298034;22;20022;-84
2023/06/07 10:43:33;;;;;;;12.02;7.22;;;;;;;26.15;46.51;101327.28;6296797;22;20334;-84
2023/06/07 10:46:24;;;;;;;9.73;6.32;;;;;;;25.69;46.84;101331.03;6271297;22;20019;-81
2023/06/07 10:48:52;;;;;;;12.15;7.68;;;;;;;25.93;45.71;101318.75;6296633;22;20058;-83
2023/06/07 10:51:43;;;;;;;11.82;8.45;;;;;;;26.27;45.92;101333.69;6294334;22;20246;-89
2023/06/07 10:54:10;;;;;;;16.33;7.50;;;;;;;27.13;44.43;101328.00;6295479;22;20430;-84
2023/06/07 10:56:38;;;;;;;9.43;7.00;;;;;;;27.61;42.75;101322.03;6269664;22;20012;-80
2023/06/07 10:59:14;;;;;;;10.00;8.07;;;;;;;27.62;42.04;101321.06;6296569;22;20026;-83
2023/06/07 11:01:41;;;;;;;9.38;7.72;;;;;;;27.30;43.53;101324.16;6296999;22;20015;-80
2023/06/07 11:04:08;;;;;;;10.60;6.55;;;;;;;27.03;43.66;101326.91;6296208;22;20054;-85
2023/06/07 11:07:20;;;;;;;12.40;7.60;;;;;;;26.51;43.96;101325.84;6270059;22;20030;-80
2023/06/07 11:09:48;;;;;;;12.80;8.13;;;;;;;26.31;44.96;101325.34;6294468;22;20035;-83
2023/06/07 11:12:40;;;;;;;9.30;7.07;;;;;;;26.31;44.22;101322.66;6294153;22;20022;-86
2023/06/07 11:15:20;;;;;;;14.25;7.55;;;;;;;26.45;44.35;101321.72;6295986;22;20047;-85
2023/06/07 11:18:00;;;;;;;8.63;6.57;;;;;;;26.81;42.70;101322.97;6296089;22;20104;-84
2023/06/07 11:20:36;;;;;;;8.27;7.03;;;;;;;26.72;42.83;101324.44;6293760;22;20114;-79
2023/06/07 11:23:34;;;;;;;9.98;6.57;;;;;;;26.58;43.18;101322.66;6296238;22;20142;-87
2023/06/07 11:26:06;;;;;;;7.68;6.30;;;;;;;27.13;42.51;101314.56;6270284;22;20046;-79
2023/06/07 11:28:35;;;;;;;;;;;;;;;27.56;41.71;101316.09;6300004;22;20064;-82